sensor_id;sensor_type;location;lat;lon;timestamp;temperature;humidity
18041;DHT22;9145;48.588;9.250;2023-08-07T00:01:47;11.90;99.90
18041;DHT22;9145;48.588;9.250;2023-08-07T00:04:14;11.90;99.90
18041;DHT22;9145;48.588;9.250;2023-08-07T00:06:40;11.90;99.90
18041;DHT22;9145;48.588;9.250;2023-08-07T00:09:07;11.90;99.90
18041;DHT22;9145;48.588;9.250;2023-08-07T00:11:34;11.90;99.90
18041;DHT22;9145;48.588;9.250;2023-08-07T00:14:01;11.90;99.90
18041;DHT22;9145;48.588;9.250;2023-08-07T00:16:27;11.90;99.90
18041;DHT22;9145;48.588;9.250;2023-08-07T00:18:55;11.90;99.90
18041;DHT22;9145;48.588;9.250;2023-08-07T00:21:23;11.90;99.90
18041;DHT22;9145;48.588;9.250;2023-08-07T00:23:50;11.90;99.90
18041;DHT22;9145;48.588;9.250;2023-08-07T00:26:17;11.90;99.90
18041;DHT22;9145;48.588;9.250;2023-08-07T00:28:43;11.90;99.90
18041;DHT22;9145;48.588;9.250;2023-08-07T00:31:10;11.90;99.90
18041;DHT22;9145;48.588;9.250;2023-08-07T00:33:37;11.90;99.90
18041;DHT22;9145;48.588;9.250;2023-08-07T00:36:06;11.90;99.90
18041;DHT22;9145;48.588;9.250;2023-08-07T00:38:32;11.90;99.90
18041;DHT22;9145;48.588;9.250;2023-08-07T00:40:59;11.90;99.90
18041;DHT22;9145;48.588;9.250;2023-08-07T00:43:26;11.90;99.90
18041;DHT22;9145;48.588;9.250;2023-08-07T00:45:53;11.90;99.90
18041;DHT22;9145;48.588;9.250;2023-08-07T00:48:20;11.90;99.90
18041;DHT22;9145;48.588;9.250;2023-08-07T00:50:48;11.80;99.90
18041;DHT22;9145;48.588;9.250;2023-08-07T00:53:17;11.90;99.90
18041;DHT22;9145;48.588;9.250;2023-08-07T00:55:44;11.90;99.90
18041;DHT22;9145;48.588;9.250;2023-08-07T00:58:12;11.80;99.90
18041;DHT22;9145;48.588;9.250;2023-08-07T01:00:39;11.80;99.90
18041;DHT22;9145;48.588;9.250;2023-08-07T01:03:07;11.80;99.90
18041;DHT22;9145;48.588;9.250;2023-08-07T01:05:34;11.80;99.90
18041;DHT22;9145;48.588;9.250;2023-08-07T01:08:01;11.80;99.90
18041;DHT22;9145;48.588;9.250;2023-08-07T01:10:38;11.80;99.90
18041;DHT22;9145;48.588;9.250;2023-08-07T01:13:14;11.80;99.90
18041;DHT22;9145;48.588;9.250;2023-08-07T01:15:47;11.80;99.90
18041;DHT22;9145;48.588;9.250;2023-08-07T01:18:15;11.80;99.90
18041;DHT22;9145;48.588;9.250;2023-08-07T01:20:43;11.70;99.90
18041;DHT22;9145;48.588;9.250;2023-08-07T01:23:11;11.70;99.90
18041;DHT22;9145;48.588;9.250;2023-08-07T01:25:38;11.70;99.90
18041;DHT22;9145;48.588;9.250;2023-08-07T01:28:11;11.70;99.90
18041;DHT22;9145;48.588;9.250;2023-08-07T01:30:42;11.70;99.90
18041;DHT22;9145;48.588;9.250;2023-08-07T01:33:14;11.70;99.90
18041;DHT22;9145;48.588;9.250;2023-08-07T01:35:45;11.60;99.90
18041;DHT22;9145;48.588;9.250;2023-08-07T01:38:15;11.70;99.90
18041;DHT22;9145;48.588;9.250;2023-08-07T01:40:43;11.70;99.90
18041;DHT22;9145;48.588;9.250;2023-08-07T01:43:11;11.70;99.90
18041;DHT22;9145;48.588;9.250;2023-08-07T01:45:38;11.60;99.90
18041;DHT22;9145;48.588;9.250;2023-08-07T01:48:05;11.60;99.90
18041;DHT22;9145;48.588;9.250;2023-08-07T01:50:32;11.60;99.90
18041;DHT22;9145;48.588;9.250;2023-08-07T01:52:59;11.60;99.90
18041;DHT22;9145;48.588;9.250;2023-08-07T01:55:29;11.60;99.90
18041;DHT22;9145;48.588;9.250;2023-08-07T01:57:56;11.60;99.90
18041;DHT22;9145;48.588;9.250;2023-08-07T02:00:23;11.60;99.90
18041;DHT22;9145;48.588;9.250;2023-08-07T02:02:49;11.60;99.90
18041;DHT22;9145;48.588;9.250;2023-08-07T02:05:16;11.50;99.90
18041;DHT22;9145;48.588;9.250;2023-08-07T02:07:44;11.50;99.90
18041;DHT22;9145;48.588;9.250;2023-08-07T02:10:11;11.40;99.90
18041;DHT22;9145;48.588;9.250;2023-08-07T02:12:39;11.50;99.90
18041;DHT22;9145;48.588;9.250;2023-08-07T02:15:07;11.50;99.90
18041;DHT22;9145;48.588;9.250;2023-08-07T02:17:35;11.50;99.90
18041;DHT22;9145;48.588;9.250;2023-08-07T02:20:04;11.50;99.90
18041;DHT22;9145;48.588;9.250;2023-08-07T02:22:32;11.50;99.90
18041;DHT22;9145;48.588;9.250;2023-08-07T02:24:58;11.50;99.90
18041;DHT22;9145;48.588;9.250;2023-08-07T02:27:25;11.50;99.90
18041;DHT22;9145;48.588;9.250;2023-08-07T02:29:53;11.50;99.90
18041;DHT22;9145;48.588;9.250;2023-08-07T02:32:20;11.50;99.90
18041;DHT22;9145;48.588;9.250;2023-08-07T02:34:47;11.50;99.90
18041;DHT22;9145;48.588;9.250;2023-08-07T02:37:14;11.50;99.90
18041;DHT22;9145;48.588;9.250;2023-08-07T02:39:41;11.50;99.90
18041;DHT22;9145;48.588;9.250;2023-08-07T02:42:08;11.50;99.90
18041;DHT22;9145;48.588;9.250;2023-08-07T02:44:35;11.50;99.90
18041;DHT22;9145;48.588;9.250;2023-08-07T02:47:03;11.50;99.90
18041;DHT22;9145;48.588;9.250;2023-08-07T02:49:30;11.50;99.90
18041;DHT22;9145;48.588;9.250;2023-08-07T02:51:57;11.50;99.90
18041;DHT22;9145;48.588;9.250;2023-08-07T02:54:24;11.60;99.90
18041;DHT22;9145;48.588;9.250;2023-08-07T02:56:50;11.60;99.90
18041;DHT22;9145;48.588;9.250;2023-08-07T02:59:17;11.60;99.90
18041;DHT22;9145;48.588;9.250;2023-08-07T03:01:44;11.60;99.90
18041;DHT22;9145;48.588;9.250;2023-08-07T03:04:12;11.60;99.90
18041;DHT22;9145;48.588;9.250;2023-08-07T03:06:39;11.60;99.90
18041;DHT22;9145;48.588;9.250;2023-08-07T03:09:06;11.60;99.90
18041;DHT22;9145;48.588;9.250;2023-08-07T03:11:33;11.60;99.90
18041;DHT22;9145;48.588;9.250;2023-08-07T03:14:00;11.70;99.90
18041;DHT22;9145;48.588;9.250;2023-08-07T03:16:27;11.60;99.90
18041;DHT22;9145;48.588;9.250;2023-08-07T03:18:53;11.70;99.90
18041;DHT22;9145;48.588;9.250;2023-08-07T03:21:21;11.70;99.90
18041;DHT22;9145;48.588;9.250;2023-08-07T03:23:48;11.70;99.90
18041;DHT22;9145;48.588;9.250;2023-08-07T03:26:15;11.60;99.90
18041;DHT22;9145;48.588;9.250;2023-08-07T03:28:42;11.60;99.90
18041;DHT22;9145;48.588;9.250;2023-08-07T03:31:11;11.60;99.90
18041;DHT22;9145;48.588;9.250;2023-08-07T03:33:38;11.60;99.90
18041;DHT22;9145;48.588;9.250;2023-08-07T03:36:05;11.60;99.90
18041;DHT22;9145;48.588;9.250;2023-08-07T03:38:33;11.60;99.90
18041;DHT22;9145;48.588;9.250;2023-08-07T03:41:00;11.60;99.90
18041;DHT22;9145;48.588;9.250;2023-08-07T03:43:26;11.60;99.90
18041;DHT22;9145;48.588;9.250;2023-08-07T03:45:54;11.60;99.90
18041;DHT22;9145;48.588;9.250;2023-08-07T03:48:22;11.50;99.90
18041;DHT22;9145;48.588;9.250;2023-08-07T03:50:48;11.50;99.90
18041;DHT22;9145;48.588;9.250;2023-08-07T03:53:15;11.40;99.90
18041;DHT22;9145;48.588;9.250;2023-08-07T03:55:49;11.50;99.90
18041;DHT22;9145;48.588;9.250;2023-08-07T03:58:16;11.50;99.90
18041;DHT22;9145;48.588;9.250;2023-08-07T04:00:43;11.50;99.90
18041;DHT22;9145;48.588;9.250;2023-08-07T04:03:09;11.50;99.90
18041;DHT22;9145;48.588;9.250;2023-08-07T04:05:36;11.50;99.90
18041;DHT22;9145;48.588;9.250;2023-08-07T04:08:03;11.50;99.90
18041;DHT22;9145;48.588;9.250;2023-08-07T04:10:30;11.50;99.90
18041;DHT22;9145;48.588;9.250;2023-08-07T04:12:58;11.40;99.90
18041;DHT22;9145;48.588;9.250;2023-08-07T04:15:26;11.40;99.90
18041;DHT22;9145;48.588;9.250;2023-08-07T04:17:52;11.40;99.90
18041;DHT22;9145;48.588;9.250;2023-08-07T04:20:19;11.30;99.90
18041;DHT22;9145;48.588;9.250;2023-08-07T04:22:46;11.40;99.90
18041;DHT22;9145;48.588;9.250;2023-08-07T04:25:13;11.40;99.90
18041;DHT22;9145;48.588;9.250;2023-08-07T04:27:40;11.40;99.90
18041;DHT22;9145;48.588;9.250;2023-08-07T04:30:09;11.40;99.90
18041;DHT22;9145;48.588;9.250;2023-08-07T04:32:36;11.40;99.90
18041;DHT22;9145;48.588;9.250;2023-08-07T04:35:04;11.40;99.90
18041;DHT22;9145;48.588;9.250;2023-08-07T04:37:31;11.40;99.90
18041;DHT22;9145;48.588;9.250;2023-08-07T04:39:58;11.50;99.90
18041;DHT22;9145;48.588;9.250;2023-08-07T04:42:26;11.50;99.90
18041;DHT22;9145;48.588;9.250;2023-08-07T04:44:52;11.50;99.90
18041;DHT22;9145;48.588;9.250;2023-08-07T04:47:21;11.50;99.90
18041;DHT22;9145;48.588;9.250;2023-08-07T04:49:48;11.50;99.90
18041;DHT22;9145;48.588;9.250;2023-08-07T04:52:14;11.40;99.90
18041;DHT22;9145;48.588;9.250;2023-08-07T04:54:41;11.40;99.90
18041;DHT22;9145;48.588;9.250;2023-08-07T04:57:08;11.40;99.90
18041;DHT22;9145;48.588;9.250;2023-08-07T04:59:35;11.40;99.90
18041;DHT22;9145;48.588;9.250;2023-08-07T05:02:01;11.30;99.90
18041;DHT22;9145;48.588;9.250;2023-08-07T05:04:30;11.30;99.90
18041;DHT22;9145;48.588;9.250;2023-08-07T05:06:56;11.20;99.90
18041;DHT22;9145;48.588;9.250;2023-08-07T05:09:23;11.20;99.90
18041;DHT22;9145;48.588;9.250;2023-08-07T05:11:50;11.10;99.90
18041;DHT22;9145;48.588;9.250;2023-08-07T05:14:17;11.20;99.90
18041;DHT22;9145;48.588;9.250;2023-08-07T05:16:43;11.20;99.90
18041;DHT22;9145;48.588;9.250;2023-08-07T05:19:10;11.20;99.90
18041;DHT22;9145;48.588;9.250;2023-08-07T05:21:38;11.20;99.90
18041;DHT22;9145;48.588;9.250;2023-08-07T05:24:05;11.20;99.90
18041;DHT22;9145;48.588;9.250;2023-08-07T05:26:32;11.30;99.90
18041;DHT22;9145;48.588;9.250;2023-08-07T05:28:59;11.30;99.90
18041;DHT22;9145;48.588;9.250;2023-08-07T05:31:26;11.30;99.90
18041;DHT22;9145;48.588;9.250;2023-08-07T05:33:52;11.30;99.90
18041;DHT22;9145;48.588;9.250;2023-08-07T05:36:19;11.30;99.90
18041;DHT22;9145;48.588;9.250;2023-08-07T05:38:47;11.40;99.90
18041;DHT22;9145;48.588;9.250;2023-08-07T05:41:14;11.40;99.90
18041;DHT22;9145;48.588;9.250;2023-08-07T05:43:41;11.50;99.90
18041;DHT22;9145;48.588;9.250;2023-08-07T05:46:08;11.60;99.90
18041;DHT22;9145;48.588;9.250;2023-08-07T05:48:35;11.70;99.90
18041;DHT22;9145;48.588;9.250;2023-08-07T05:51:02;11.70;99.90
18041;DHT22;9145;48.588;9.250;2023-08-07T05:53:29;11.80;99.90
18041;DHT22;9145;48.588;9.250;2023-08-07T05:55:57;11.80;99.90
18041;DHT22;9145;48.588;9.250;2023-08-07T05:58:24;11.80;99.90
18041;DHT22;9145;48.588;9.250;2023-08-07T06:00:50;11.80;99.90
18041;DHT22;9145;48.588;9.250;2023-08-07T06:03:17;11.90;99.90
18041;DHT22;9145;48.588;9.250;2023-08-07T06:05:44;11.90;99.90
18041;DHT22;9145;48.588;9.250;2023-08-07T06:08:11;11.90;99.90
18041;DHT22;9145;48.588;9.250;2023-08-07T06:10:38;12.00;99.90
18041;DHT22;9145;48.588;9.250;2023-08-07T06:13:06;12.00;99.90
18041;DHT22;9145;48.588;9.250;2023-08-07T06:15:33;12.00;99.90
18041;DHT22;9145;48.588;9.250;2023-08-07T06:18:00;12.10;99.90
18041;DHT22;9145;48.588;9.250;2023-08-07T06:20:27;12.10;99.90
18041;DHT22;9145;48.588;9.250;2023-08-07T06:22:54;12.10;99.90
18041;DHT22;9145;48.588;9.250;2023-08-07T06:25:21;12.20;99.90
18041;DHT22;9145;48.588;9.250;2023-08-07T06:27:47;12.20;99.90
18041;DHT22;9145;48.588;9.250;2023-08-07T06:30:15;12.20;99.90
18041;DHT22;9145;48.588;9.250;2023-08-07T06:32:42;12.20;99.90
18041;DHT22;9145;48.588;9.250;2023-08-07T06:35:09;12.20;99.90
18041;DHT22;9145;48.588;9.250;2023-08-07T06:37:36;12.20;99.90
18041;DHT22;9145;48.588;9.250;2023-08-07T06:40:03;12.30;99.90
18041;DHT22;9145;48.588;9.250;2023-08-07T06:42:30;12.40;99.90
18041;DHT22;9145;48.588;9.250;2023-08-07T06:44:57;12.40;99.90
18041;DHT22;9145;48.588;9.250;2023-08-07T06:47:25;12.40;99.90
18041;DHT22;9145;48.588;9.250;2023-08-07T06:49:52;12.50;99.90
18041;DHT22;9145;48.588;9.250;2023-08-07T06:52:19;12.60;99.90
18041;DHT22;9145;48.588;9.250;2023-08-07T06:54:46;12.60;99.90
18041;DHT22;9145;48.588;9.250;2023-08-07T06:57:12;12.70;99.90
18041;DHT22;9145;48.588;9.250;2023-08-07T06:59:39;12.70;99.90
18041;DHT22;9145;48.588;9.250;2023-08-07T07:02:06;12.80;99.90
18041;DHT22;9145;48.588;9.250;2023-08-07T07:04:34;12.80;99.90
18041;DHT22;9145;48.588;9.250;2023-08-07T07:07:02;12.80;99.90
18041;DHT22;9145;48.588;9.250;2023-08-07T07:09:29;12.90;99.90
18041;DHT22;9145;48.588;9.250;2023-08-07T07:11:56;12.90;99.90
18041;DHT22;9145;48.588;9.250;2023-08-07T07:14:23;13.00;99.90
18041;DHT22;9145;48.588;9.250;2023-08-07T07:16:50;13.20;99.90
18041;DHT22;9145;48.588;9.250;2023-08-07T07:19:17;13.30;99.90
18041;DHT22;9145;48.588;9.250;2023-08-07T07:21:45;13.30;99.90
18041;DHT22;9145;48.588;9.250;2023-08-07T07:24:12;13.40;99.90
18041;DHT22;9145;48.588;9.250;2023-08-07T07:26:38;13.30;99.90
18041;DHT22;9145;48.588;9.250;2023-08-07T07:29:05;13.30;99.90
18041;DHT22;9145;48.588;9.250;2023-08-07T07:31:32;13.40;99.90
18041;DHT22;9145;48.588;9.250;2023-08-07T07:33:59;13.40;99.90
18041;DHT22;9145;48.588;9.250;2023-08-07T07:36:26;13.50;99.90
18041;DHT22;9145;48.588;9.250;2023-08-07T07:38:54;13.40;99.90
18041;DHT22;9145;48.588;9.250;2023-08-07T07:41:22;13.40;99.90
18041;DHT22;9145;48.588;9.250;2023-08-07T07:43:49;13.50;99.90
18041;DHT22;9145;48.588;9.250;2023-08-07T07:46:16;13.50;99.90
18041;DHT22;9145;48.588;9.250;2023-08-07T07:48:43;13.60;99.90
18041;DHT22;9145;48.588;9.250;2023-08-07T07:51:10;13.70;99.90
18041;DHT22;9145;48.588;9.250;2023-08-07T07:53:37;14.00;99.90
18041;DHT22;9145;48.588;9.250;2023-08-07T07:56:05;14.20;99.90
18041;DHT22;9145;48.588;9.250;2023-08-07T07:58:32;14.40;99.90
18041;DHT22;9145;48.588;9.250;2023-08-07T08:00:59;14.60;99.90
18041;DHT22;9145;48.588;9.250;2023-08-07T08:03:25;14.80;99.90
18041;DHT22;9145;48.588;9.250;2023-08-07T08:05:53;15.00;99.90
18041;DHT22;9145;48.588;9.250;2023-08-07T08:08:20;15.20;99.90
18041;DHT22;9145;48.588;9.250;2023-08-07T08:10:46;15.20;99.90
18041;DHT22;9145;48.588;9.250;2023-08-07T08:13:15;15.20;99.90
18041;DHT22;9145;48.588;9.250;2023-08-07T08:15:42;15.20;99.90
18041;DHT22;9145;48.588;9.250;2023-08-07T08:18:09;15.30;99.90
18041;DHT22;9145;48.588;9.250;2023-08-07T08:20:36;15.40;99.90
18041;DHT22;9145;48.588;9.250;2023-08-07T08:23:03;15.60;99.90
18041;DHT22;9145;48.588;9.250;2023-08-07T08:25:30;15.60;99.90
18041;DHT22;9145;48.588;9.250;2023-08-07T08:27:58;15.60;99.90
18041;DHT22;9145;48.588;9.250;2023-08-07T08:30:26;15.70;99.90
18041;DHT22;9145;48.588;9.250;2023-08-07T08:32:53;15.90;99.90
18041;DHT22;9145;48.588;9.250;2023-08-07T08:35:20;15.90;99.90
18041;DHT22;9145;48.588;9.250;2023-08-07T08:37:47;16.00;99.90
18041;DHT22;9145;48.588;9.250;2023-08-07T08:40:14;15.90;99.90
18041;DHT22;9145;48.588;9.250;2023-08-07T08:42:43;16.10;99.90
18041;DHT22;9145;48.588;9.250;2023-08-07T08:45:13;16.00;99.90
18041;DHT22;9145;48.588;9.250;2023-08-07T08:47:42;15.70;99.90
18041;DHT22;9145;48.588;9.250;2023-08-07T08:50:11;15.80;99.90
18041;DHT22;9145;48.588;9.250;2023-08-07T08:52:41;15.80;99.90
18041;DHT22;9145;48.588;9.250;2023-08-07T08:55:08;16.00;99.90
18041;DHT22;9145;48.588;9.250;2023-08-07T08:57:35;16.30;99.90
18041;DHT22;9145;48.588;9.250;2023-08-07T09:00:04;16.30;99.90
18041;DHT22;9145;48.588;9.250;2023-08-07T09:02:46;16.20;99.90
18041;DHT22;9145;48.588;9.250;2023-08-07T09:05:15;16.20;99.90
18041;DHT22;9145;48.588;9.250;2023-08-07T09:07:42;16.20;99.90
18041;DHT22;9145;48.588;9.250;2023-08-07T09:10:09;16.30;99.90
18041;DHT22;9145;48.588;9.250;2023-08-07T09:12:40;16.20;99.90
18041;DHT22;9145;48.588;9.250;2023-08-07T09:15:09;16.20;99.90
18041;DHT22;9145;48.588;9.250;2023-08-07T09:17:39;16.00;99.90
18041;DHT22;9145;48.588;9.250;2023-08-07T09:20:09;16.10;99.90
18041;DHT22;9145;48.588;9.250;2023-08-07T09:22:38;16.20;99.90
18041;DHT22;9145;48.588;9.250;2023-08-07T09:25:06;16.20;99.90
18041;DHT22;9145;48.588;9.250;2023-08-07T09:27:35;16.20;99.90
18041;DHT22;9145;48.588;9.250;2023-08-07T09:30:05;16.20;99.90
18041;DHT22;9145;48.588;9.250;2023-08-07T09:32:33;16.30;99.90
18041;DHT22;9145;48.588;9.250;2023-08-07T09:35:02;16.30;99.90
18041;DHT22;9145;48.588;9.250;2023-08-07T09:37:31;16.30;99.90
18041;DHT22;9145;48.588;9.250;2023-08-07T09:40:00;16.40;99.90
18041;DHT22;9145;48.588;9.250;2023-08-07T09:42:30;16.50;99.90
18041;DHT22;9145;48.588;9.250;2023-08-07T09:44:59;16.30;99.90
18041;DHT22;9145;48.588;9.250;2023-08-07T09:47:27;16.30;99.90
18041;DHT22;9145;48.588;9.250;2023-08-07T09:49:55;16.20;99.90
18041;DHT22;9145;48.588;9.250;2023-08-07T09:52:24;16.30;99.90
18041;DHT22;9145;48.588;9.250;2023-08-07T09:54:55;16.30;99.90
18041;DHT22;9145;48.588;9.250;2023-08-07T09:57:22;16.40;99.90
18041;DHT22;9145;48.588;9.250;2023-08-07T09:59:49;16.60;99.90
18041;DHT22;9145;48.588;9.250;2023-08-07T10:02:17;16.70;99.90
18041;DHT22;9145;48.588;9.250;2023-08-07T10:04:44;16.90;99.90
18041;DHT22;9145;48.588;9.250;2023-08-07T10:07:12;16.90;99.90
18041;DHT22;9145;48.588;9.250;2023-08-07T10:09:41;16.90;99.90
18041;DHT22;9145;48.588;9.250;2023-08-07T10:12:10;16.70;99.90
18041;DHT22;9145;48.588;9.250;2023-08-07T10:14:38;16.60;99.90
18041;DHT22;9145;48.588;9.250;2023-08-07T10:17:07;16.80;99.90
18041;DHT22;9145;48.588;9.250;2023-08-07T10:19:34;16.70;99.90
18041;DHT22;9145;48.588;9.250;2023-08-07T10:22:02;16.60;99.90
18041;DHT22;9145;48.588;9.250;2023-08-07T10:24:30;16.70;99.90
18041;DHT22;9145;48.588;9.250;2023-08-07T10:26:58;16.80;99.90
18041;DHT22;9145;48.588;9.250;2023-08-07T10:29:28;17.00;99.90
18041;DHT22;9145;48.588;9.250;2023-08-07T10:31:56;17.00;99.90
18041;DHT22;9145;48.588;9.250;2023-08-07T10:34:24;17.20;99.90
18041;DHT22;9145;48.588;9.250;2023-08-07T10:36:51;17.30;99.90
18041;DHT22;9145;48.588;9.250;2023-08-07T10:39:17;17.20;99.90
18041;DHT22;9145;48.588;9.250;2023-08-07T10:41:46;17.30;99.90
18041;DHT22;9145;48.588;9.250;2023-08-07T10:44:20;17.20;99.90
18041;DHT22;9145;48.588;9.250;2023-08-07T10:46:49;17.40;99.90
18041;DHT22;9145;48.588;9.250;2023-08-07T10:49:33;17.50;99.90
18041;DHT22;9145;48.588;9.250;2023-08-07T10:52:02;17.50;99.90
18041;DHT22;9145;48.588;9.250;2023-08-07T10:54:29;17.70;99.90
18041;DHT22;9145;48.588;9.250;2023-08-07T10:56:56;17.90;99.90
18041;DHT22;9145;48.588;9.250;2023-08-07T10:59:29;18.00;99.90
18041;DHT22;9145;48.588;9.250;2023-08-07T11:01:58;18.30;99.90
18041;DHT22;9145;48.588;9.250;2023-08-07T11:04:26;18.10;99.90
18041;DHT22;9145;48.588;9.250;2023-08-07T11:06:53;17.90;99.90
18041;DHT22;9145;48.588;9.250;2023-08-07T11:09:20;17.80;99.90
18041;DHT22;9145;48.588;9.250;2023-08-07T11:11:48;18.30;99.90
18041;DHT22;9145;48.588;9.250;2023-08-07T11:14:16;18.10;99.90
18041;DHT22;9145;48.588;9.250;2023-08-07T11:16:43;17.60;99.90
18041;DHT22;9145;48.588;9.250;2023-08-07T11:19:13;17.30;99.90
18041;DHT22;9145;48.588;9.250;2023-08-07T11:21:41;17.00;99.90
18041;DHT22;9145;48.588;9.250;2023-08-07T11:24:11;16.90;99.90
18041;DHT22;9145;48.588;9.250;2023-08-07T11:26:38;16.90;99.90
18041;DHT22;9145;48.588;9.250;2023-08-07T11:29:06;16.90;99.90
18041;DHT22;9145;48.588;9.250;2023-08-07T11:31:34;17.10;99.90
18041;DHT22;9145;48.588;9.250;2023-08-07T11:34:01;17.30;99.90
18041;DHT22;9145;48.588;9.250;2023-08-07T11:36:30;17.30;99.90
18041;DHT22;9145;48.588;9.250;2023-08-07T11:39:13;17.30;99.90
18041;DHT22;9145;48.588;9.250;2023-08-07T11:41:40;17.20;99.90
18041;DHT22;9145;48.588;9.250;2023-08-07T11:44:11;17.00;99.90
18041;DHT22;9145;48.588;9.250;2023-08-07T11:46:43;17.00;99.90
18041;DHT22;9145;48.588;9.250;2023-08-07T11:49:10;17.00;99.90
18041;DHT22;9145;48.588;9.250;2023-08-07T11:51:41;17.00;99.90
18041;DHT22;9145;48.588;9.250;2023-08-07T11:54:14;17.10;99.90
18041;DHT22;9145;48.588;9.250;2023-08-07T11:56:45;17.20;99.90
18041;DHT22;9145;48.588;9.250;2023-08-07T11:59:12;17.10;99.90
18041;DHT22;9145;48.588;9.250;2023-08-07T12:01:42;16.90;99.90
18041;DHT22;9145;48.588;9.250;2023-08-07T12:04:10;16.90;99.90
18041;DHT22;9145;48.588;9.250;2023-08-07T12:06:41;16.80;99.90
18041;DHT22;9145;48.588;9.250;2023-08-07T12:09:18;16.70;99.90
18041;DHT22;9145;48.588;9.250;2023-08-07T12:11:45;16.60;99.90
18041;DHT22;9145;48.588;9.250;2023-08-07T12:14:15;16.50;99.90
18041;DHT22;9145;48.588;9.250;2023-08-07T12:16:44;16.50;99.90
18041;DHT22;9145;48.588;9.250;2023-08-07T12:19:11;16.40;99.90
18041;DHT22;9145;48.588;9.250;2023-08-07T12:21:41;16.40;99.90
18041;DHT22;9145;48.588;9.250;2023-08-07T12:24:09;16.40;99.90
18041;DHT22;9145;48.588;9.250;2023-08-07T12:26:38;16.30;99.90
18041;DHT22;9145;48.588;9.250;2023-08-07T12:29:05;16.30;99.90
18041;DHT22;9145;48.588;9.250;2023-08-07T12:31:35;16.20;99.90
18041;DHT22;9145;48.588;9.250;2023-08-07T12:34:05;16.20;99.90
18041;DHT22;9145;48.588;9.250;2023-08-07T12:36:31;16.10;99.90
18041;DHT22;9145;48.588;9.250;2023-08-07T12:39:00;16.10;99.90
18041;DHT22;9145;48.588;9.250;2023-08-07T12:41:27;16.00;99.90
18041;DHT22;9145;48.588;9.250;2023-08-07T12:43:54;16.00;99.90
18041;DHT22;9145;48.588;9.250;2023-08-07T12:46:21;16.00;99.90
18041;DHT22;9145;48.588;9.250;2023-08-07T12:48:48;16.00;99.90
18041;DHT22;9145;48.588;9.250;2023-08-07T12:51:14;15.90;99.90
18041;DHT22;9145;48.588;9.250;2023-08-07T12:53:41;15.90;99.90
18041;DHT22;9145;48.588;9.250;2023-08-07T12:56:11;15.90;99.90
18041;DHT22;9145;48.588;9.250;2023-08-07T12:58:38;16.00;99.90
18041;DHT22;9145;48.588;9.250;2023-08-07T13:01:08;16.20;99.90
18041;DHT22;9145;48.588;9.250;2023-08-07T13:03:35;16.30;99.90
18041;DHT22;9145;48.588;9.250;2023-08-07T13:06:02;16.40;99.90
18041;DHT22;9145;48.588;9.250;2023-08-07T13:08:33;16.40;99.90
18041;DHT22;9145;48.588;9.250;2023-08-07T13:11:00;16.40;99.90
18041;DHT22;9145;48.588;9.250;2023-08-07T13:13:31;16.40;99.90
18041;DHT22;9145;48.588;9.250;2023-08-07T13:15:58;16.30;99.90
18041;DHT22;9145;48.588;9.250;2023-08-07T13:18:25;16.30;99.90
18041;DHT22;9145;48.588;9.250;2023-08-07T13:20:51;16.30;99.90
18041;DHT22;9145;48.588;9.250;2023-08-07T13:23:18;16.30;99.90
18041;DHT22;9145;48.588;9.250;2023-08-07T13:25:45;16.40;99.90
18041;DHT22;9145;48.588;9.250;2023-08-07T13:28:26;16.40;99.90
18041;DHT22;9145;48.588;9.250;2023-08-07T13:30:57;16.50;99.90
18041;DHT22;9145;48.588;9.250;2023-08-07T13:33:24;16.50;99.90
18041;DHT22;9145;48.588;9.250;2023-08-07T13:35:51;16.60;99.90
18041;DHT22;9145;48.588;9.250;2023-08-07T13:38:18;16.70;99.90
18041;DHT22;9145;48.588;9.250;2023-08-07T13:40:45;16.80;99.90
18041;DHT22;9145;48.588;9.250;2023-08-07T13:43:11;16.90;99.90
18041;DHT22;9145;48.588;9.250;2023-08-07T13:45:38;17.00;99.90
18041;DHT22;9145;48.588;9.250;2023-08-07T13:48:06;17.00;99.90
18041;DHT22;9145;48.588;9.250;2023-08-07T13:50:35;17.10;99.90
18041;DHT22;9145;48.588;9.250;2023-08-07T13:53:03;17.00;99.90
18041;DHT22;9145;48.588;9.250;2023-08-07T13:55:30;17.00;99.90
18041;DHT22;9145;48.588;9.250;2023-08-07T13:57:57;16.90;99.90
18041;DHT22;9145;48.588;9.250;2023-08-07T14:00:23;16.90;99.90
18041;DHT22;9145;48.588;9.250;2023-08-07T14:02:51;16.70;99.90
18041;DHT22;9145;48.588;9.250;2023-08-07T14:05:19;16.70;99.90
18041;DHT22;9145;48.588;9.250;2023-08-07T14:07:46;16.80;99.90
18041;DHT22;9145;48.588;9.250;2023-08-07T14:10:13;17.10;99.90
18041;DHT22;9145;48.588;9.250;2023-08-07T14:12:40;17.70;99.90
18041;DHT22;9145;48.588;9.250;2023-08-07T14:15:07;18.30;99.90
18041;DHT22;9145;48.588;9.250;2023-08-07T14:17:34;19.00;99.90
18041;DHT22;9145;48.588;9.250;2023-08-07T14:20:01;19.80;99.90
18041;DHT22;9145;48.588;9.250;2023-08-07T14:22:31;20.50;99.90
18041;DHT22;9145;48.588;9.250;2023-08-07T14:25:00;20.70;99.90
18041;DHT22;9145;48.588;9.250;2023-08-07T14:27:27;20.30;99.90
18041;DHT22;9145;48.588;9.250;2023-08-07T14:29:54;20.30;99.90
18041;DHT22;9145;48.588;9.250;2023-08-07T14:32:21;19.80;99.90
18041;DHT22;9145;48.588;9.250;2023-08-07T14:34:48;19.40;99.90
18041;DHT22;9145;48.588;9.250;2023-08-07T14:37:14;19.10;99.90
18041;DHT22;9145;48.588;9.250;2023-08-07T14:39:43;18.90;99.90
18041;DHT22;9145;48.588;9.250;2023-08-07T14:42:09;18.70;99.90
18041;DHT22;9145;48.588;9.250;2023-08-07T14:44:36;18.60;99.90
18041;DHT22;9145;48.588;9.250;2023-08-07T14:47:03;18.60;99.90
18041;DHT22;9145;48.588;9.250;2023-08-07T14:49:30;18.60;99.90
18041;DHT22;9145;48.588;9.250;2023-08-07T14:51:57;18.60;99.90
18041;DHT22;9145;48.588;9.250;2023-08-07T14:54:24;18.50;99.90
18041;DHT22;9145;48.588;9.250;2023-08-07T14:56:52;18.40;99.90
18041;DHT22;9145;48.588;9.250;2023-08-07T14:59:19;18.20;99.90
18041;DHT22;9145;48.588;9.250;2023-08-07T15:01:45;18.00;99.90
18041;DHT22;9145;48.588;9.250;2023-08-07T15:04:12;17.90;99.90
18041;DHT22;9145;48.588;9.250;2023-08-07T15:06:39;17.80;99.90
18041;DHT22;9145;48.588;9.250;2023-08-07T15:09:07;17.70;99.90
18041;DHT22;9145;48.588;9.250;2023-08-07T15:11:34;17.60;99.90
18041;DHT22;9145;48.588;9.250;2023-08-07T15:14:03;17.50;99.90
18041;DHT22;9145;48.588;9.250;2023-08-07T15:16:30;17.50;99.90
18041;DHT22;9145;48.588;9.250;2023-08-07T15:18:57;17.40;99.90
18041;DHT22;9145;48.588;9.250;2023-08-07T15:21:23;17.40;99.90
18041;DHT22;9145;48.588;9.250;2023-08-07T15:23:50;17.40;99.90
18041;DHT22;9145;48.588;9.250;2023-08-07T15:26:17;17.40;99.90
18041;DHT22;9145;48.588;9.250;2023-08-07T15:28:44;17.40;99.90
18041;DHT22;9145;48.588;9.250;2023-08-07T15:31:13;17.40;99.90
18041;DHT22;9145;48.588;9.250;2023-08-07T15:33:40;17.40;99.90
18041;DHT22;9145;48.588;9.250;2023-08-07T15:36:07;17.50;99.90
18041;DHT22;9145;48.588;9.250;2023-08-07T15:38:34;17.50;99.90
18041;DHT22;9145;48.588;9.250;2023-08-07T15:41:03;17.50;99.90
18041;DHT22;9145;48.588;9.250;2023-08-07T15:43:30;17.60;99.90
18041;DHT22;9145;48.588;9.250;2023-08-07T15:45:57;17.70;99.90
18041;DHT22;9145;48.588;9.250;2023-08-07T15:48:25;17.80;99.90